Time;durP1;ratioP1;P1;durP2;ratioP2;P2;SDS_P1;SDS_P2;PMS_P1;PMS_P2;Temp;Humidity;BMP_temperature;BMP_pressure;BME280_temperature;BME280_humidity;BME280_pressure;Samples;Min_cycle;Max_cycle;Signal;HPM_P1;HPM_P2
2023/01/15 00:00:09;;;;;;;;;;;;;;;9.23;73.21;99538.81;7364116;19;19926;-55
2023/01/15 00:02:36;;;;;;;;;;;;;;;9.23;72.74;99531.75;7357147;19;20746;-56
2023/01/15 00:05:03;;;;;;;;;;;;;;;9.22;72.03;99535.34;7356913;19;20343;-58
2023/01/15 00:07:30;;;;;;;;;;;;;;;9.25;72.75;99535.00;7366891;19;21122;-55
2023/01/15 00:09:57;;;;;;;;;;;;;;;9.26;72.04;99526.13;7366554;19;20324;-58
2023/01/15 00:12:24;;;;;;;;;;;;;;;9.21;70.85;99520.59;7370362;19;20555;-60
2023/01/15 00:14:51;;;;;;;;;;;;;;;9.19;70.36;99527.03;7368158;19;20255;-59
2023/01/15 00:17:18;;;;;;;;;;;;;;;9.17;71.72;99523.75;7370770;19;19926;-56
2023/01/15 00:19:46;;;;;;;;;;;;;;;9.16;70.87;99530.81;7369684;19;19926;-59
2023/01/15 00:22:12;;;;;;;;;;;;;;;9.12;70.09;99515.59;7370099;19;19925;-59
2023/01/15 00:29:53;;;;;;;;;;;;;;;8.98;70.64;99519.81;7371624;19;20347;-59
2023/01/15 00:32:20;;;;;;;;;;;;;;;8.97;69.79;99518.97;7368400;19;19956;-59
2023/01/15 00:34:47;;;;;;;;;;;;;;;8.99;70.27;99521.41;7367913;19;19933;-60
2023/01/15 00:37:14;;;;;;;;;;;;;;;8.98;70.21;99520.63;7368053;19;19929;-59
2023/01/15 00:39:41;;;;;;;;;;;;;;;8.94;70.15;99524.56;7366531;19;19974;-61
2023/01/15 00:42:08;;;;;;;;;;;;;;;8.95;71.40;99543.75;7369041;19;20238;-57
2023/01/15 00:44:35;;;;;;;;;;;;;;;8.94;72.16;99539.47;7368689;19;19938;-59
2023/01/15 00:47:02;;;;;;;;;;;;;;;8.89;71.34;99537.38;7369883;19;19926;-58
2023/01/15 00:49:29;;;;;;;;;;;;;;;8.90;70.86;99535.56;7369637;19;19927;-57
2023/01/15 00:51:56;;;;;;;;;;;;;;;8.90;71.65;99540.81;7369255;19;19929;-58
2023/01/15 00:54:23;;;;;;;;;;;;;;;8.89;72.32;99532.13;7365061;19;19931;-56
2023/01/15 00:56:49;;;;;;;;;;;;;;;8.87;72.48;99538.56;7364929;19;19922;-57
2023/01/15 00:59:16;;;;;;;;;;;;;;;8.86;72.30;99535.13;7365562;19;19929;-59
2023/01/15 01:01:43;;;;;;;;;;;;;;;8.84;72.30;99525.78;7368682;19;20339;-58
2023/01/15 01:04:10;;;;;;;;;;;;;;;8.75;71.48;99513.72;7357658;19;19942;-55
2023/01/15 01:06:37;;;;;;;;;;;;;;;8.68;71.76;99513.63;7366912;19;20015;-59
2023/01/15 01:09:04;;;;;;;;;;;;;;;8.58;71.59;99518.25;7363570;19;20524;-58
2023/01/15 01:11:33;;;;;;;;;;;;;;;8.51;72.31;99519.94;7368469;19;21813;-58
2023/01/15 01:14:01;;;;;;;;;;;;;;;8.46;72.61;99522.25;7367219;19;19923;-58
2023/01/15 01:16:30;;;;;;;;;;;;;;;8.40;71.63;99512.44;7367532;19;19923;-57
2023/01/15 01:18:58;;;;;;;;;;;;;;;8.37;72.18;99512.78;7364896;19;20006;-59
2023/01/15 01:21:25;;;;;;;;;;;;;;;8.33;71.75;99520.16;7369324;19;19919;-57
2023/01/15 01:23:52;;;;;;;;;;;;;;;8.35;72.40;99512.13;7365946;19;21378;-59
2023/01/15 01:26:19;;;;;;;;;;;;;;;8.34;72.33;99518.34;7366109;19;20348;-59
2023/01/15 01:28:50;;;;;;;;;;;;;;;8.31;72.29;99516.91;7366433;19;19914;-57
2023/01/15 01:31:18;;;;;;;;;;;;;;;8.29;72.35;99513.59;7366024;19;20364;-56
2023/01/15 01:33:47;;;;;;;;;;;;;;;8.28;72.42;99519.03;7365446;19;19919;-58
2023/01/15 01:36:14;;;;;;;;;;;;;;;8.30;73.60;99531.00;7366837;19;19926;-56
2023/01/15 01:38:41;;;;;;;;;;;;;;;8.33;74.26;99532.47;7365606;19;20588;-56
2023/01/15 01:41:07;;;;;;;;;;;;;;;8.29;72.94;99539.81;7364018;19;20484;-58
2023/01/15 01:43:50;;;;;;;;;;;;;;;8.28;72.54;99532.94;7361238;19;20375;-57
2023/01/15 01:46:18;;;;;;;;;;;;;;;8.30;73.04;99549.34;7367913;19;19940;-57
2023/01/15 01:48:46;;;;;;;;;;;;;;;8.33;73.17;99551.59;7366854;19;19933;-56
2023/01/15 01:51:13;;;;;;;;;;;;;;;8.34;73.13;99549.81;7365519;19;19937;-60
2023/01/15 01:53:40;;;;;;;;;;;;;;;8.33;73.46;99545.56;7365326;19;19922;-58
2023/01/15 01:56:10;;;;;;;;;;;;;;;8.32;73.55;99547.38;7367084;19;19922;-56
2023/01/15 01:58:38;;;;;;;;;;;;;;;8.31;73.00;99550.97;7364298;19;19926;-61
2023/01/15 02:01:05;;;;;;;;;;;;;;;8.29;73.63;99542.44;7365176;19;20414;-59
2023/01/15 02:03:34;;;;;;;;;;;;;;;8.29;75.19;99539.81;7367277;19;20304;-59
2023/01/15 02:06:02;;;;;;;;;;;;;;;8.27;74.53;99547.03;7362993;19;20002;-57
2023/01/15 02:08:31;;;;;;;;;;;;;;;8.22;74.20;99540.66;7362418;19;19933;-60
2023/01/15 02:10:58;;;;;;;;;;;;;;;8.15;74.16;99543.16;7364626;19;19930;-60
2023/01/15 02:13:25;;;;;;;;;;;;;;;8.12;75.16;99540.88;7365792;19;20326;-59
2023/01/15 02:15:59;;;;;;;;;;;;;;;8.08;74.86;99542.16;7365301;19;19938;-55
2023/01/15 02:18:34;;;;;;;;;;;;;;;8.11;76.80;99545.28;7365402;19;20427;-55
2023/01/15 02:21:06;;;;;;;;;;;;;;;8.10;75.54;99551.50;7364272;19;19923;-59
2023/01/15 02:23:43;;;;;;;;;;;;;;;8.12;75.17;99549.56;7360697;19;19983;-58
2023/01/15 02:26:29;;;;;;;;;;;;;;;8.08;74.56;99537.75;7359725;19;19930;-61
2023/01/15 02:28:57;;;;;;;;;;;;;;;8.08;75.05;99542.16;7363518;19;20309;-60
2023/01/15 02:31:29;;;;;;;;;;;;;;;8.07;74.81;99535.31;7364378;19;19919;-61
2023/01/15 02:33:58;;;;;;;;;;;;;;;8.10;76.14;99535.78;7363035;19;20424;-56
2023/01/15 02:36:27;;;;;;;;;;;;;;;8.12;76.14;99520.75;7363072;19;20372;-59
2023/01/15 02:38:56;;;;;;;;;;;;;;;8.13;75.07;99526.75;7364487;19;19922;-57
2023/01/15 02:41:27;;;;;;;;;;;;;;;8.13;75.09;99524.16;7364212;19;19926;-60
2023/01/15 02:43:56;;;;;;;;;;;;;;;8.14;75.84;99525.78;7365832;19;19957;-57
2023/01/15 02:46:25;;;;;;;;;;;;;;;8.12;74.90;99523.34;7362740;19;19975;-60
2023/01/15 02:48:54;;;;;;;;;;;;;;;8.11;74.35;99519.09;7364538;19;19923;-59
2023/01/15 02:51:24;;;;;;;;;;;;;;;8.09;74.40;99517.63;7365247;19;19939;-60
2023/01/15 02:53:53;;;;;;;;;;;;;;;8.08;75.07;99515.97;7363422;19;19942;-61
2023/01/15 02:56:22;;;;;;;;;;;;;;;8.04;74.15;99506.84;7363535;19;20429;-61
2023/01/15 02:58:52;;;;;;;;;;;;;;;8.00;73.88;99516.84;7365074;19;19919;-56
2023/01/15 03:01:21;;;;;;;;;;;;;;;7.97;75.14;99509.34;7365510;19;19955;-59
2023/01/15 03:03:54;;;;;;;;;;;;;;;7.97;75.01;99508.50;7359151;19;20414;-59
2023/01/15 03:06:26;;;;;;;;;;;;;;;7.94;74.63;99493.94;7364670;19;19936;-61
2023/01/15 03:08:53;;;;;;;;;;;;;;;7.91;74.68;99489.06;7363273;19;20059;-64
2023/01/15 03:11:20;;;;;;;;;;;;;;;7.93;76.46;99479.22;7363264;19;19926;-58
2023/01/15 03:13:53;;;;;;;;;;;;;;;7.95;76.09;99482.47;7367602;19;19919;-61
2023/01/15 03:19:06;;;;;;;;;;;;;;;7.95;75.10;99471.19;7364470;19;19966;-59
2023/01/15 03:21:42;;;;;;;;;;;;;;;7.95;74.80;99489.53;7366045;19;19922;-58
2023/01/15 03:24:10;;;;;;;;;;;;;;;7.91;73.71;99501.31;7361881;19;19923;-59
2023/01/15 03:26:37;;;;;;;;;;;;;;;7.88;73.65;99484.13;7360683;19;19914;-57
2023/01/15 03:29:06;;;;;;;;;;;;;;;7.88;74.08;99478.91;7365320;19;20414;-60
2023/01/15 03:31:34;;;;;;;;;;;;;;;7.88;74.14;99491.16;7364247;19;19947;-61
2023/01/15 03:34:01;;;;;;;;;;;;;;;7.89;74.39;99482.34;7359294;19;19915;-60
2023/01/15 03:36:27;;;;;;;;;;;;;;;7.89;73.74;99470.06;7367616;19;20331;-60
2023/01/15 03:38:54;;;;;;;;;;;;;;;7.82;72.33;99474.34;7360353;19;19938;-61
2023/01/15 03:41:28;;;;;;;;;;;;;;;7.78;72.18;99491.38;7361846;19;20650;-59
2023/01/15 03:44:04;;;;;;;;;;;;;;;7.74;72.13;99500.53;7361948;19;20358;-59
2023/01/15 03:46:41;;;;;;;;;;;;;;;7.73;73.25;99499.72;7362471;19;19915;-59
2023/01/15 03:49:18;;;;;;;;;;;;;;;7.71;72.80;99493.84;7364540;19;20470;-61
2023/01/15 03:51:51;;;;;;;;;;;;;;;7.71;72.56;99495.66;7364783;19;19915;-59
2023/01/15 03:54:25;;;;;;;;;;;;;;;7.68;72.46;99502.03;7362304;19;19919;-56
2023/01/15 03:56:57;;;;;;;;;;;;;;;7.69;72.34;99502.84;7362212;19;19947;-59
2023/01/15 03:59:29;;;;;;;;;;;;;;;7.65;72.07;99501.56;7361156;19;19934;-60
2023/01/15 04:01:57;;;;;;;;;;;;;;;7.67;73.18;99494.34;7364981;19;19939;-59
2023/01/15 04:04:25;;;;;;;;;;;;;;;7.63;72.03;99485.19;7359649;19;19922;-60
2023/01/15 04:06:53;;;;;;;;;;;;;;;7.61;72.07;99487.19;7363571;19;19962;-61
2023/01/15 04:09:20;;;;;;;;;;;;;;;7.59;72.31;99483.91;7360621;19;19961;-60
2023/01/15 04:11:47;;;;;;;;;;;;;;;7.58;71.60;99479.63;7363051;19;19923;-59
2023/01/15 04:14:14;;;;;;;;;;;;;;;7.54;72.92;99473.94;7362145;19;21668;-58
2023/01/15 04:16:40;;;;;;;;;;;;;;;7.51;73.05;99469.03;7365402;19;20290;-59
2023/01/15 04:19:07;;;;;;;;;;;;;;;7.55;72.76;99470.34;7362281;19;19951;-58
2023/01/15 04:21:34;;;;;;;;;;;;;;;7.59;73.07;99471.63;7364138;19;19922;-60
2023/01/15 04:24:00;;;;;;;;;;;;;;;7.60;73.19;99465.41;7356968;19;20321;-58
2023/01/15 04:26:27;;;;;;;;;;;;;;;7.60;72.51;99472.44;7362963;19;19930;-61
2023/01/15 04:28:54;;;;;;;;;;;;;;;7.58;71.74;99483.06;7363575;19;19923;-60
2023/01/15 04:31:21;;;;;;;;;;;;;;;7.61;73.01;99480.16;7364257;19;19918;-60
2023/01/15 04:33:48;;;;;;;;;;;;;;;7.63;73.86;99470.31;7360763;19;19919;-59
2023/01/15 04:36:14;;;;;;;;;;;;;;;7.66;72.38;99474.41;7360886;19;19927;-60
2023/01/15 04:38:41;;;;;;;;;;;;;;;7.61;72.34;99461.81;7361084;19;19946;-60
2023/01/15 04:46:23;;;;;;;;;;;;;;;7.56;72.90;99445.00;7362621;19;19977;-58
2023/01/15 04:48:50;;;;;;;;;;;;;;;7.53;73.41;99461.81;7361189;19;19923;-57
2023/01/15 04:51:17;;;;;;;;;;;;;;;7.53;73.55;99448.75;7362061;19;20272;-60
2023/01/15 04:53:44;;;;;;;;;;;;;;;7.54;73.39;99445.16;7358854;19;20387;-60
2023/01/15 04:56:10;;;;;;;;;;;;;;;7.52;72.45;99454.13;7369301;19;19977;-61
2023/01/15 04:58:37;;;;;;;;;;;;;;;7.53;73.12;99472.28;7369785;19;20427;-57
2023/01/15 05:01:09;;;;;;;;;;;;;;;7.52;73.57;99470.66;7369085;19;20651;-61
2023/01/15 05:03:36;;;;;;;;;;;;;;;7.54;73.76;99475.72;7368388;19;19929;-59
2023/01/15 05:06:03;;;;;;;;;;;;;;;7.56;73.41;99468.53;7368848;19;19923;-60
2023/01/15 05:08:30;;;;;;;;;;;;;;;7.55;72.52;99459.06;7368129;19;19911;-60
2023/01/15 05:11:00;;;;;;;;;;;;;;;7.54;73.53;99462.66;7369437;19;19918;-57
2023/01/15 05:13:27;;;;;;;;;;;;;;;7.54;73.93;99476.56;7369490;19;19946;-61
2023/01/15 05:15:54;;;;;;;;;;;;;;;7.54;72.94;99460.84;7367974;19;19956;-59
2023/01/15 05:18:20;;;;;;;;;;;;;;;7.58;73.56;99466.56;7368187;19;19931;-58
2023/01/15 05:20:47;;;;;;;;;;;;;;;7.61;73.79;99453.16;7369212;19;20244;-58
2023/01/15 05:23:14;;;;;;;;;;;;;;;7.63;73.43;99449.38;7369161;19;20037;-59
2023/01/15 05:25:41;;;;;;;;;;;;;;;7.66;73.44;99448.22;7364502;19;20279;-61
2023/01/15 05:28:08;;;;;;;;;;;;;;;7.64;73.50;99444.94;7370495;19;19927;-60
2023/01/15 05:30:34;;;;;;;;;;;;;;;7.65;73.64;99441.34;7368067;19;20432;-65
2023/01/15 05:33:01;;;;;;;;;;;;;;;7.65;73.15;99441.34;7367996;19;19938;-59
2023/01/15 05:35:28;;;;;;;;;;;;;;;7.64;72.36;99451.00;7365712;19;19926;-59
2023/01/15 05:37:54;;;;;;;;;;;;;;;7.61;72.94;99448.72;7369440;19;19918;-60
2023/01/15 05:40:21;;;;;;;;;;;;;;;7.63;71.82;99441.50;7365562;19;19922;-60
2023/01/15 05:42:48;;;;;;;;;;;;;;;7.63;71.86;99449.38;7369738;19;19946;-64
2023/01/15 05:45:14;;;;;;;;;;;;;;;7.64;73.74;99448.38;7367925;19;19923;-61
2023/01/15 05:47:41;;;;;;;;;;;;;;;7.66;72.42;99441.19;7367716;19;20225;-56
2023/01/15 05:50:08;;;;;;;;;;;;;;;7.69;72.20;99464.41;7366849;19;19963;-61
2023/01/15 05:52:35;;;;;;;;;;;;;;;7.73;72.47;99452.59;7369415;19;19954;-57
2023/01/15 05:55:02;;;;;;;;;;;;;;;7.75;71.86;99444.59;7365148;19;19926;-59
2023/01/15 05:57:31;;;;;;;;;;;;;;;7.75;71.41;99431.50;7368872;19;19923;-58
2023/01/15 05:59:58;;;;;;;;;;;;;;;7.78;71.88;99431.16;7367747;19;19915;-59
2023/01/15 06:02:25;;;;;;;;;;;;;;;7.78;71.68;99418.06;7366682;19;19923;-59
2023/01/15 06:04:51;;;;;;;;;;;;;;;7.81;72.81;99415.13;7364018;19;19922;-61
2023/01/15 06:07:18;;;;;;;;;;;;;;;7.85;71.97;99405.94;7364906;19;19933;-58
2023/01/15 06:09:45;;;;;;;;;;;;;;;7.86;72.41;99407.56;7366959;19;19930;-60
2023/01/15 06:12:11;;;;;;;;;;;;;;;7.87;71.85;99403.97;7368139;19;19918;-58
2023/01/15 06:14:38;;;;;;;;;;;;;;;7.89;73.06;99411.63;7367863;19;19926;-61
2023/01/15 06:17:05;;;;;;;;;;;;;;;7.89;72.49;99417.69;7367768;19;20059;-61
2023/01/15 06:19:32;;;;;;;;;;;;;;;7.89;72.77;99425.56;7362941;19;19930;-60
2023/01/15 06:22:00;;;;;;;;;;;;;;;7.89;72.78;99416.88;7366388;19;19923;-61
2023/01/15 06:24:27;;;;;;;;;;;;;;;7.81;71.88;99415.13;7363412;19;19915;-59
2023/01/15 06:26:53;;;;;;;;;;;;;;;7.79;72.24;99417.09;7366063;19;19919;-60
2023/01/15 06:29:20;;;;;;;;;;;;;;;7.78;72.80;99417.25;7365703;19;19918;-58
2023/01/15 06:31:48;;;;;;;;;;;;;;;7.77;72.63;99418.25;7369161;19;19926;-56
2023/01/15 06:34:15;;;;;;;;;;;;;;;7.77;72.44;99402.53;7361982;19;19939;-59
2023/01/15 06:36:41;;;;;;;;;;;;;;;7.77;72.10;99408.59;7365360;19;19927;-63
2023/01/15 06:39:08;;;;;;;;;;;;;;;7.75;73.24;99402.72;7364136;19;20383;-60
2023/01/15 06:49:26;;;;;;;;;;;;;;;7.76;73.35;99419.22;7363932;19;19919;-59
2023/01/15 06:51:53;;;;;;;;;;;;;;;7.73;72.63;99415.13;7365843;19;19926;-60
2023/01/15 06:54:20;;;;;;;;;;;;;;;7.71;72.66;99411.91;7362000;19;19919;-60
2023/01/15 06:56:47;;;;;;;;;;;;;;;7.75;73.91;99413.19;7363754;19;19927;-60
2023/01/15 06:59:13;;;;;;;;;;;;;;;7.75;73.27;99405.31;7366060;19;19926;-60
2023/01/15 07:01:40;;;;;;;;;;;;;;;7.73;73.31;99412.53;7367183;19;19918;-60
2023/01/15 07:04:07;;;;;;;;;;;;;;;7.72;73.12;99409.09;7364838;19;19929;-61
2023/01/15 07:06:33;;;;;;;;;;;;;;;7.76;74.30;99404.34;7362458;19;19926;-60
2023/01/15 07:09:00;;;;;;;;;;;;;;;7.76;73.54;99417.44;7363621;19;20321;-59
2023/01/15 07:11:27;;;;;;;;;;;;;;;7.77;73.88;99421.69;7364319;19;19918;-59
2023/01/15 07:14:04;;;;;;;;;;;;;;;7.74;73.89;99417.59;7365828;19;19930;-59
2023/01/15 07:16:32;;;;;;;;;;;;;;;7.77;73.61;99420.88;7362295;19;19915;-61
2023/01/15 07:18:59;;;;;;;;;;;;;;;7.74;72.56;99424.63;7362891;19;20408;-61
2023/01/15 07:21:26;;;;;;;;;;;;;;;7.71;72.35;99419.75;7365630;19;19927;-59
2023/01/15 07:23:54;;;;;;;;;;;;;;;7.71;73.24;99415.34;7361203;19;19969;-59
2023/01/15 07:26:20;;;;;;;;;;;;;;;7.70;72.37;99410.25;7361980;19;19922;-58
2023/01/15 07:28:47;;;;;;;;;;;;;;;7.70;73.77;99405.03;7365424;19;19950;-61
2023/01/15 07:31:14;;;;;;;;;;;;;;;7.73;74.54;99399.44;7363278;19;20093;-60
2023/01/15 07:33:40;;;;;;;;;;;;;;;7.72;73.07;99392.56;7364180;19;20263;-59
2023/01/15 07:36:07;;;;;;;;;;;;;;;7.72;73.59;99387.31;7365674;19;19926;-61
2023/01/15 07:38:37;;;;;;;;;;;;;;;7.75;74.40;99394.84;7358473;19;20388;-60
2023/01/15 07:51:30;;;;;;;;;;;;;;;7.71;75.84;99401.41;7364985;19;19923;-60
2023/01/15 07:53:57;;;;;;;;;;;;;;;7.72;75.86;99401.22;7361635;19;19926;-59
2023/01/15 07:56:24;;;;;;;;;;;;;;;7.75;75.29;99394.84;7360959;19;19934;-62
2023/01/15 07:58:50;;;;;;;;;;;;;;;7.77;74.98;99398.13;7364763;19;19953;-61
2023/01/15 08:01:17;;;;;;;;;;;;;;;7.77;74.66;99398.13;7364615;19;19935;-62
2023/01/15 08:03:44;;;;;;;;;;;;;;;7.78;74.79;99401.53;7362865;19;19946;-61
2023/01/15 08:06:10;;;;;;;;;;;;;;;7.81;74.95;99398.59;7361452;19;20337;-62
2023/01/15 08:08:37;;;;;;;;;;;;;;;7.82;73.88;99401.06;7361897;19;19922;-59
2023/01/15 08:16:27;;;;;;;;;;;;;;;7.80;73.40;99407.44;7361066;19;20030;-62
2023/01/15 08:18:54;;;;;;;;;;;;;;;7.80;74.13;99417.91;7360804;19;19921;-60
2023/01/15 08:21:21;;;;;;;;;;;;;;;7.84;74.78;99424.44;7363081;19;20480;-60
2023/01/15 08:23:49;;;;;;;;;;;;;;;7.89;74.91;99424.72;7359369;19;19922;-62
2023/01/15 08:26:16;;;;;;;;;;;;;;;7.91;74.66;99436.69;7360393;19;19918;-60
2023/01/15 08:28:43;;;;;;;;;;;;;;;7.95;74.77;99434.53;7367760;19;19930;-61
2023/01/15 08:31:09;;;;;;;;;;;;;;;7.95;74.12;99432.72;7370083;19;19914;-62
2023/01/15 08:33:36;;;;;;;;;;;;;;;8.00;74.51;99446.13;7371271;19;20333;-57
2023/01/15 08:36:03;;;;;;;;;;;;;;;8.00;74.44;99438.28;7369755;19;19915;-59
2023/01/15 08:38:30;;;;;;;;;;;;;;;8.07;75.14;99441.03;7367774;19;20478;-59
2023/01/15 08:40:57;;;;;;;;;;;;;;;8.09;75.34;99444.28;7369808;19;19926;-60
2023/01/15 08:43:25;;;;;;;;;;;;;;;8.10;74.93;99441.50;7371219;19;19923;-61
2023/01/15 08:45:56;;;;;;;;;;;;;;;8.15;75.22;99441.78;7366201;19;19922;-62
2023/01/15 08:48:24;;;;;;;;;;;;;;;8.21;75.09;99432.44;7368329;19;20007;-60
2023/01/15 08:50:50;;;;;;;;;;;;;;;8.26;74.69;99442.41;7368546;19;19922;-62
2023/01/15 08:53:18;;;;;;;;;;;;;;;8.27;74.69;99439.63;7368896;19;19938;-62
2023/01/15 08:55:45;;;;;;;;;;;;;;;8.34;74.59;99437.13;7367049;19;19926;-61
2023/01/15 08:58:12;;;;;;;;;;;;;;;8.42;74.08;99429.25;7371615;19;19943;-60
2023/01/15 09:00:39;;;;;;;;;;;;;;;8.48;73.77;99420.69;7371545;19;20181;-60
2023/01/15 09:03:06;;;;;;;;;;;;;;;8.52;73.62;99432.44;7368207;19;19920;-60
2023/01/15 09:05:32;;;;;;;;;;;;;;;8.51;72.73;99431.63;7366983;19;20461;-62
2023/01/15 09:07:59;;;;;;;;;;;;;;;8.53;73.27;99439.31;7367294;19;19927;-60
2023/01/15 09:10:26;;;;;;;;;;;;;;;8.56;73.67;99438.97;7367110;19;20539;-62
2023/01/15 09:12:53;;;;;;;;;;;;;;;8.62;74.44;99438.28;7370687;19;21587;-62
2023/01/15 09:15:20;;;;;;;;;;;;;;;8.66;73.38;99436.94;7368195;19;19963;-60
2023/01/15 09:17:47;;;;;;;;;;;;;;;8.72;73.85;99448.53;7371244;19;20355;-64
2023/01/15 09:20:14;;;;;;;;;;;;;;;8.77;73.42;99443.56;7368613;19;19922;-62
2023/01/15 09:22:40;;;;;;;;;;;;;;;8.83;73.66;99433.19;7368418;19;20434;-64
2023/01/15 09:25:07;;;;;;;;;;;;;;;8.88;73.32;99440.53;7363277;19;20209;-62
2023/01/15 09:27:34;;;;;;;;;;;;;;;8.94;73.19;99450.31;7368095;19;19918;-63
2023/01/15 09:30:01;;;;;;;;;;;;;;;9.02;72.88;99432.72;7368232;19;20320;-63
2023/01/15 09:32:27;;;;;;;;;;;;;;;9.05;72.14;99444.63;7367078;19;19925;-62
2023/01/15 09:34:54;;;;;;;;;;;;;;;9.03;71.97;99451.88;7366077;19;20548;-62
2023/01/15 09:37:21;;;;;;;;;;;;;;;9.05;72.12;99463.00;7366150;19;19922;-61
2023/01/15 09:39:48;;;;;;;;;;;;;;;9.06;73.33;99458.56;7357394;19;19929;-62
2023/01/15 09:42:24;;;;;;;;;;;;;;;9.09;72.72;99466.94;7368488;19;19923;-62
2023/01/15 09:44:54;;;;;;;;;;;;;;;9.16;72.73;99467.81;7367908;19;19923;-62
2023/01/15 09:47:31;;;;;;;;;;;;;;;9.19;72.54;99464.06;7368462;19;20336;-63
2023/01/15 09:50:08;;;;;;;;;;;;;;;9.19;72.26;99470.13;7366802;19;19923;-65
2023/01/15 09:52:44;;;;;;;;;;;;;;;9.26;71.74;99475.44;7370069;19;19931;-64
2023/01/15 09:55:11;;;;;;;;;;;;;;;9.30;72.04;99464.41;7365107;19;19923;-62
2023/01/15 09:57:39;;;;;;;;;;;;;;;9.32;71.99;99474.75;7369096;19;20651;-62
2023/01/15 10:00:12;;;;;;;;;;;;;;;9.35;71.22;99477.00;7368213;19;19945;-63
2023/01/15 10:02:42;;;;;;;;;;;;;;;9.43;72.19;99495.31;7367475;19;20457;-63
2023/01/15 10:05:14;;;;;;;;;;;;;;;9.54;72.08;99499.31;7365308;19;20702;-62
2023/01/15 10:07:41;;;;;;;;;;;;;;;9.57;71.10;99512.91;7361623;19;19935;-63
2023/01/15 10:10:13;;;;;;;;;;;;;;;9.59;70.41;99507.47;7364791;19;19915;-63
2023/01/15 10:12:43;;;;;;;;;;;;;;;9.61;71.46;99522.03;7369012;19;19919;-63
2023/01/15 10:15:15;;;;;;;;;;;;;;;9.67;70.86;99513.44;7366719;19;19930;-62
2023/01/15 10:17:44;;;;;;;;;;;;;;;9.74;70.54;99535.38;7366025;19;19990;-61
2023/01/15 10:20:26;;;;;;;;;;;;;;;9.77;70.54;99536.81;7364034;19;20717;-62
2023/01/15 10:23:01;;;;;;;;;;;;;;;9.82;70.42;99537.09;7365653;19;19922;-63
2023/01/15 10:25:33;;;;;;;;;;;;;;;9.90;71.94;99525.72;7361902;19;20536;-62
2023/01/15 10:28:05;;;;;;;;;;;;;;;9.96;70.61;99554.69;7367027;19;20290;-62
2023/01/15 10:30:32;;;;;;;;;;;;;;;10.02;70.75;99542.63;7363828;19;19937;-62
2023/01/15 10:33:04;;;;;;;;;;;;;;;10.06;69.96;99549.16;7366632;19;19927;-61
2023/01/15 10:35:40;;;;;;;;;;;;;;;10.08;69.69;99549.81;7364330;19;19927;-62
2023/01/15 10:38:08;;;;;;;;;;;;;;;10.18;69.67;99555.63;7367331;19;19930;-62
2023/01/15 10:40:36;;;;;;;;;;;;;;;10.25;69.34;99548.66;7364293;19;19918;-63
2023/01/15 10:43:13;;;;;;;;;;;;;;;10.28;68.86;99569.31;7367707;19;19947;-63
2023/01/15 10:45:45;;;;;;;;;;;;;;;10.37;69.73;99554.25;7365128;19;19933;-62
2023/01/15 10:48:23;;;;;;;;;;;;;;;10.47;69.73;99566.13;7363346;19;19931;-61
2023/01/15 10:50:50;;;;;;;;;;;;;;;10.52;68.99;99566.38;7364628;19;19927;-63
2023/01/15 10:53:26;;;;;;;;;;;;;;;10.55;68.85;99568.66;7360774;19;19933;-62
2023/01/15 10:55:57;;;;;;;;;;;;;;;10.60;68.03;99576.00;7363761;19;19929;-63
2023/01/15 10:58:32;;;;;;;;;;;;;;;10.63;67.35;99573.81;7366484;19;21778;-62
2023/01/15 11:01:03;;;;;;;;;;;;;;;10.62;67.00;99584.50;7367012;19;19938;-63
2023/01/15 11:03:34;;;;;;;;;;;;;;;10.64;68.00;99569.38;7363663;19;20340;-62
2023/01/15 11:06:01;;;;;;;;;;;;;;;10.67;68.67;99577.69;7363114;19;19954;-61
2023/01/15 11:08:29;;;;;;;;;;;;;;;10.65;67.59;99584.16;7360717;19;19926;-62
2023/01/15 11:11:20;;;;;;;;;;;;;;;10.61;66.77;99577.63;7366359;19;19974;-62
2023/01/15 11:21:41;;;;;;;;;;;;;;;10.42;68.20;99584.25;7363545;19;19945;-63
2023/01/15 11:24:13;;;;;;;;;;;;;;;10.35;68.01;99583.38;7362971;19;19918;-62
2023/01/15 11:26:40;;;;;;;;;;;;;;;10.35;68.34;99564.16;7365669;19;20650;-62
2023/01/15 11:29:19;;;;;;;;;;;;;;;10.32;67.75;99567.13;7362699;19;20319;-61
2023/01/15 11:31:46;;;;;;;;;;;;;;;10.32;68.14;99573.19;7367080;19;19926;-63
2023/01/15 11:34:20;;;;;;;;;;;;;;;10.35;66.84;99567.59;7361671;19;19923;-62
2023/01/15 11:36:47;;;;;;;;;;;;;;;10.30;66.67;99572.59;7364708;19;19930;-63
2023/01/15 11:39:22;;;;;;;;;;;;;;;10.24;67.12;99560.97;7359039;19;19930;-64
2023/01/15 11:52:27;;;;;;;;;;;;;;;10.07;67.56;99556.88;7365232;19;20321;-61
2023/01/15 11:54:54;;;;;;;;;;;;;;;10.07;68.40;99550.78;7360503;19;20420;-62
2023/01/15 11:57:25;;;;;;;;;;;;;;;10.07;68.50;99553.41;7365288;19;19918;-63
2023/01/15 11:59:52;;;;;;;;;;;;;;;10.06;68.57;99544.72;7364780;19;19927;-61
2023/01/15 12:02:28;;;;;;;;;;;;;;;10.08;70.48;99534.03;7364570;19;20220;-62
2023/01/15 12:04:58;;;;;;;;;;;;;;;10.13;72.99;99531.66;7368417;19;19927;-63
2023/01/15 12:07:25;;;;;;;;;;;;;;;10.19;74.13;99523.09;7368469;19;19922;-61
2023/01/15 12:10:01;;;;;;;;;;;;;;;10.19;70.06;99520.47;7369943;19;20108;-62
2023/01/15 12:12:29;;;;;;;;;;;;;;;10.20;70.42;99520.28;7370982;19;20407;-63
2023/01/15 12:14:59;;;;;;;;;;;;;;;10.22;70.00;99514.84;7370431;19;19919;-64
2023/01/15 12:17:36;;;;;;;;;;;;;;;10.25;69.26;99523.19;7373039;19;19938;-62
2023/01/15 12:20:17;;;;;;;;;;;;;;;10.21;69.31;99513.19;7369477;19;19956;-63
2023/01/15 12:22:54;;;;;;;;;;;;;;;10.25;72.16;99506.59;7370465;19;19929;-61
2023/01/15 12:25:29;;;;;;;;;;;;;;;10.26;71.29;99514.28;7369290;19;20613;-62
2023/01/15 12:28:09;;;;;;;;;;;;;;;10.28;71.80;99512.28;7366331;19;20477;-63
2023/01/15 12:30:40;;;;;;;;;;;;;;;10.35;70.43;99517.66;7366631;19;19918;-62
2023/01/15 12:33:07;;;;;;;;;;;;;;;10.40;70.00;99507.38;7347277;19;20182;-62
2023/01/15 12:35:36;;;;;;;;;;;;;;;10.42;70.80;99505.38;7354310;19;19943;-62
2023/01/15 12:38:13;;;;;;;;;;;;;;;10.42;68.44;99507.19;7369895;19;20320;-63
2023/01/15 12:40:51;;;;;;;;;;;;;;;10.43;68.48;99495.69;7364958;19;20380;-63
2023/01/15 12:45:59;;;;;;;;;;;;;;;10.49;67.83;99498.38;7367407;19;20539;-63
2023/01/15 12:48:26;;;;;;;;;;;;;;;10.48;67.05;99498.56;7366518;19;19923;-62
2023/01/15 12:50:55;;;;;;;;;;;;;;;10.49;67.88;99493.13;7366255;19;20444;-62
2023/01/15 12:53:32;;;;;;;;;;;;;;;10.51;68.08;99488.50;7368799;19;20559;-65
2023/01/15 12:56:00;;;;;;;;;;;;;;;10.51;68.12;99487.69;7367111;19;19927;-63
2023/01/15 12:58:35;;;;;;;;;;;;;;;10.47;67.42;99484.59;7367258;19;20359;-64
2023/01/15 13:01:12;;;;;;;;;;;;;;;10.47;67.39;99492.50;7367246;19;19934;-62
2023/01/15 13:03:46;;;;;;;;;;;;;;;10.45;66.70;99493.69;7365315;19;19930;-63
2023/01/15 13:06:15;;;;;;;;;;;;;;;10.45;68.63;99486.63;7367354;19;19957;-62
2023/01/15 13:08:50;;;;;;;;;;;;;;;10.49;70.06;99497.56;7363884;19;19914;-64
2023/01/15 13:11:17;;;;;;;;;;;;;;;10.48;71.00;99502.00;7366269;19;19930;-63
2023/01/15 13:13:56;;;;;;;;;;;;;;;10.42;72.99;99486.16;7365385;19;20356;-67
2023/01/15 13:16:27;;;;;;;;;;;;;;;10.23;73.73;99471.78;7366547;19;19925;-61
2023/01/15 13:19:06;;;;;;;;;;;;;;;10.15;76.82;99461.34;7366935;19;20375;-62
2023/01/15 13:21:35;;;;;;;;;;;;;;;10.13;78.72;99464.16;7369718;19;20276;-60
2023/01/15 13:24:10;;;;;;;;;;;;;;;10.04;76.28;99470.53;7364817;19;20018;-63
2023/01/15 13:26:46;;;;;;;;;;;;;;;9.94;75.49;99463.91;7365624;19;19934;-62
2023/01/15 13:29:16;;;;;;;;;;;;;;;9.93;77.36;99470.16;7364353;19;19943;-63
2023/01/15 13:31:54;;;;;;;;;;;;;;;9.93;78.62;99457.03;7369726;19;19934;-63
2023/01/15 13:34:29;;;;;;;;;;;;;;;9.95;79.26;99461.13;7366967;19;19982;-62
2023/01/15 13:37:01;;;;;;;;;;;;;;;10.00;78.89;99458.75;7362709;19;19930;-62
2023/01/15 13:39:34;;;;;;;;;;;;;;;10.03;79.72;99458.38;7363875;19;19927;-62
2023/01/15 13:44:43;;;;;;;;;;;;;;;10.05;77.00;99459.03;7365366;19;19922;-62
2023/01/15 13:47:12;;;;;;;;;;;;;;;10.05;77.03;99453.75;7366441;19;19926;-63
2023/01/15 13:49:45;;;;;;;;;;;;;;;9.99;74.13;99441.34;7367721;19;20026;-62
2023/01/15 13:52:20;;;;;;;;;;;;;;;10.00;75.26;99439.53;7366823;19;20035;-61
2023/01/15 13:54:48;;;;;;;;;;;;;;;10.02;74.73;99433.09;7362189;19;19943;-64
2023/01/15 13:57:24;;;;;;;;;;;;;;;10.04;72.44;99430.28;7369001;19;20016;-62
2023/01/15 13:59:52;;;;;;;;;;;;;;;10.11;74.11;99421.47;7366918;19;19939;-63
2023/01/15 14:02:28;;;;;;;;;;;;;;;10.13;72.43;99426.56;7365867;19;19923;-61
2023/01/15 14:04:55;;;;;;;;;;;;;;;10.18;73.63;99429.47;7367393;19;19915;-60